sensor_id;sensor_type;location;lat;lon;timestamp;temperature;humidity
11284;DHT22;5698;47.332;11.180;2023-07-28T00:02:02;10.10;99.90
11284;DHT22;5698;47.332;11.180;2023-07-28T00:04:30;10.10;99.90
11284;DHT22;5698;47.332;11.180;2023-07-28T00:06:57;10.20;99.90
11284;DHT22;5698;47.332;11.180;2023-07-28T00:09:24;10.20;99.90
11284;DHT22;5698;47.332;11.180;2023-07-28T00:11:51;10.20;99.90
11284;DHT22;5698;47.332;11.180;2023-07-28T00:14:18;10.20;99.90
11284;DHT22;5698;47.332;11.180;2023-07-28T00:16:45;10.20;99.90
11284;DHT22;5698;47.332;11.180;2023-07-28T00:19:12;10.20;99.90
11284;DHT22;5698;47.332;11.180;2023-07-28T00:21:41;10.20;99.90
11284;DHT22;5698;47.332;11.180;2023-07-28T00:24:08;10.20;99.90
11284;DHT22;5698;47.332;11.180;2023-07-28T00:26:34;10.30;99.90
11284;DHT22;5698;47.332;11.180;2023-07-28T00:29:01;10.30;99.90
11284;DHT22;5698;47.332;11.180;2023-07-28T00:31:32;10.30;99.90
11284;DHT22;5698;47.332;11.180;2023-07-28T00:33:59;10.20;99.90
11284;DHT22;5698;47.332;11.180;2023-07-28T00:36:26;10.20;99.90
11284;DHT22;5698;47.332;11.180;2023-07-28T00:38:54;10.10;99.90
11284;DHT22;5698;47.332;11.180;2023-07-28T00:41:21;10.10;99.90
11284;DHT22;5698;47.332;11.180;2023-07-28T00:43:48;10.00;99.90
11284;DHT22;5698;47.332;11.180;2023-07-28T00:46:15;10.00;99.90
11284;DHT22;5698;47.332;11.180;2023-07-28T00:48:43;10.00;99.90
11284;DHT22;5698;47.332;11.180;2023-07-28T00:51:11;10.00;99.90
11284;DHT22;5698;47.332;11.180;2023-07-28T00:53:38;9.90;99.90
11284;DHT22;5698;47.332;11.180;2023-07-28T00:56:07;10.00;99.90
11284;DHT22;5698;47.332;11.180;2023-07-28T00:58:34;9.90;99.90
11284;DHT22;5698;47.332;11.180;2023-07-28T01:01:01;9.90;99.90
11284;DHT22;5698;47.332;11.180;2023-07-28T01:03:28;9.90;99.90
11284;DHT22;5698;47.332;11.180;2023-07-28T01:06:06;9.90;99.90
11284;DHT22;5698;47.332;11.180;2023-07-28T01:08:42;9.90;99.90
11284;DHT22;5698;47.332;11.180;2023-07-28T01:11:10;9.90;99.90
11284;DHT22;5698;47.332;11.180;2023-07-28T01:13:37;9.90;99.90
11284;DHT22;5698;47.332;11.180;2023-07-28T01:16:05;10.00;99.90
11284;DHT22;5698;47.332;11.180;2023-07-28T01:18:32;10.10;99.90
11284;DHT22;5698;47.332;11.180;2023-07-28T01:21:01;10.10;99.90
11284;DHT22;5698;47.332;11.180;2023-07-28T01:23:37;10.20;99.90
11284;DHT22;5698;47.332;11.180;2023-07-28T01:26:10;10.10;99.90
11284;DHT22;5698;47.332;11.180;2023-07-28T01:28:40;10.10;99.90
11284;DHT22;5698;47.332;11.180;2023-07-28T01:31:08;10.10;99.90
11284;DHT22;5698;47.332;11.180;2023-07-28T01:33:35;10.00;99.90
11284;DHT22;5698;47.332;11.180;2023-07-28T01:36:03;10.00;99.90
11284;DHT22;5698;47.332;11.180;2023-07-28T01:38:30;9.90;99.90
11284;DHT22;5698;47.332;11.180;2023-07-28T01:40:57;9.90;99.90
11284;DHT22;5698;47.332;11.180;2023-07-28T01:43:23;9.90;99.90
11284;DHT22;5698;47.332;11.180;2023-07-28T01:45:52;9.90;99.90
11284;DHT22;5698;47.332;11.180;2023-07-28T01:48:19;9.80;99.90
11284;DHT22;5698;47.332;11.180;2023-07-28T01:50:46;9.80;99.90
11284;DHT22;5698;47.332;11.180;2023-07-28T01:53:13;9.70;99.90
11284;DHT22;5698;47.332;11.180;2023-07-28T01:55:40;9.70;99.90
11284;DHT22;5698;47.332;11.180;2023-07-28T01:58:06;9.70;99.90
11284;DHT22;5698;47.332;11.180;2023-07-28T02:00:35;9.60;99.90
11284;DHT22;5698;47.332;11.180;2023-07-28T02:03:03;9.60;99.90
11284;DHT22;5698;47.332;11.180;2023-07-28T02:05:30;9.60;99.90
11284;DHT22;5698;47.332;11.180;2023-07-28T02:07:58;9.60;99.90
11284;DHT22;5698;47.332;11.180;2023-07-28T02:10:26;9.60;99.90
11284;DHT22;5698;47.332;11.180;2023-07-28T02:12:53;9.60;99.90
11284;DHT22;5698;47.332;11.180;2023-07-28T02:15:20;9.50;99.90
11284;DHT22;5698;47.332;11.180;2023-07-28T02:17:47;9.50;99.90
11284;DHT22;5698;47.332;11.180;2023-07-28T02:20:16;9.50;99.90
11284;DHT22;5698;47.332;11.180;2023-07-28T02:22:43;9.50;99.90
11284;DHT22;5698;47.332;11.180;2023-07-28T02:25:10;9.50;99.90
11284;DHT22;5698;47.332;11.180;2023-07-28T02:27:37;9.40;99.90
11284;DHT22;5698;47.332;11.180;2023-07-28T02:30:05;9.40;99.90
11284;DHT22;5698;47.332;11.180;2023-07-28T02:32:33;9.40;99.90
11284;DHT22;5698;47.332;11.180;2023-07-28T02:35:00;9.40;99.90
11284;DHT22;5698;47.332;11.180;2023-07-28T02:37:28;9.30;99.90
11284;DHT22;5698;47.332;11.180;2023-07-28T02:39:55;9.30;99.90
11284;DHT22;5698;47.332;11.180;2023-07-28T02:42:22;9.30;99.90
11284;DHT22;5698;47.332;11.180;2023-07-28T02:44:50;9.30;99.90
11284;DHT22;5698;47.332;11.180;2023-07-28T02:47:17;9.30;99.90
11284;DHT22;5698;47.332;11.180;2023-07-28T02:49:45;9.30;99.90
11284;DHT22;5698;47.332;11.180;2023-07-28T02:52:11;9.30;99.90
11284;DHT22;5698;47.332;11.180;2023-07-28T02:54:39;9.30;99.90
11284;DHT22;5698;47.332;11.180;2023-07-28T02:57:07;9.40;99.90
11284;DHT22;5698;47.332;11.180;2023-07-28T02:59:34;9.40;99.90
11284;DHT22;5698;47.332;11.180;2023-07-28T03:02:01;9.40;99.90
11284;DHT22;5698;47.332;11.180;2023-07-28T03:04:28;9.40;99.90
11284;DHT22;5698;47.332;11.180;2023-07-28T03:06:55;9.50;99.90
11284;DHT22;5698;47.332;11.180;2023-07-28T03:09:22;9.50;99.90
11284;DHT22;5698;47.332;11.180;2023-07-28T03:11:51;9.50;99.90
11284;DHT22;5698;47.332;11.180;2023-07-28T03:14:18;9.60;99.90
11284;DHT22;5698;47.332;11.180;2023-07-28T03:16:47;9.60;99.90
11284;DHT22;5698;47.332;11.180;2023-07-28T03:19:14;9.70;99.90
11284;DHT22;5698;47.332;11.180;2023-07-28T03:21:41;9.70;99.90
11284;DHT22;5698;47.332;11.180;2023-07-28T03:24:08;9.80;99.90
11284;DHT22;5698;47.332;11.180;2023-07-28T03:26:35;9.80;99.90
11284;DHT22;5698;47.332;11.180;2023-07-28T03:29:03;9.80;99.90
11284;DHT22;5698;47.332;11.180;2023-07-28T03:31:30;9.80;99.90
11284;DHT22;5698;47.332;11.180;2023-07-28T03:34:01;9.90;99.90
11284;DHT22;5698;47.332;11.180;2023-07-28T03:36:28;9.90;99.90
11284;DHT22;5698;47.332;11.180;2023-07-28T03:38:55;9.90;99.90
11284;DHT22;5698;47.332;11.180;2023-07-28T03:41:22;9.90;99.90
11284;DHT22;5698;47.332;11.180;2023-07-28T03:43:49;9.90;99.90
11284;DHT22;5698;47.332;11.180;2023-07-28T03:46:17;10.00;99.90
11284;DHT22;5698;47.332;11.180;2023-07-28T03:48:44;10.00;99.90
11284;DHT22;5698;47.332;11.180;2023-07-28T03:51:11;10.00;99.90
11284;DHT22;5698;47.332;11.180;2023-07-28T03:53:38;10.00;99.90
11284;DHT22;5698;47.332;11.180;2023-07-28T03:56:05;10.10;99.90
11284;DHT22;5698;47.332;11.180;2023-07-28T03:58:32;10.10;99.90
11284;DHT22;5698;47.332;11.180;2023-07-28T04:00:59;10.20;99.90
11284;DHT22;5698;47.332;11.180;2023-07-28T04:03:27;10.20;99.90
11284;DHT22;5698;47.332;11.180;2023-07-28T04:05:54;10.30;99.90
11284;DHT22;5698;47.332;11.180;2023-07-28T04:08:21;10.30;99.90
11284;DHT22;5698;47.332;11.180;2023-07-28T04:10:48;10.30;99.90
11284;DHT22;5698;47.332;11.180;2023-07-28T04:13:15;10.40;99.90
11284;DHT22;5698;47.332;11.180;2023-07-28T04:15:42;10.40;99.90
11284;DHT22;5698;47.332;11.180;2023-07-28T04:18:09;10.50;99.90
11284;DHT22;5698;47.332;11.180;2023-07-28T04:20:37;10.60;99.90
11284;DHT22;5698;47.332;11.180;2023-07-28T04:23:04;10.70;99.90
11284;DHT22;5698;47.332;11.180;2023-07-28T04:25:31;10.80;99.90
11284;DHT22;5698;47.332;11.180;2023-07-28T04:27:58;10.80;99.90
11284;DHT22;5698;47.332;11.180;2023-07-28T04:30:25;10.80;99.90
11284;DHT22;5698;47.332;11.180;2023-07-28T04:32:52;10.90;99.90
11284;DHT22;5698;47.332;11.180;2023-07-28T04:35:19;10.90;99.90
11284;DHT22;5698;47.332;11.180;2023-07-28T04:37:47;10.80;99.90
11284;DHT22;5698;47.332;11.180;2023-07-28T04:40:14;10.90;99.90
11284;DHT22;5698;47.332;11.180;2023-07-28T04:42:41;10.90;99.90
11284;DHT22;5698;47.332;11.180;2023-07-28T04:45:09;10.90;99.90
11284;DHT22;5698;47.332;11.180;2023-07-28T04:47:36;10.80;99.90
11284;DHT22;5698;47.332;11.180;2023-07-28T04:50:03;10.90;99.90
11284;DHT22;5698;47.332;11.180;2023-07-28T04:52:30;10.90;99.90
11284;DHT22;5698;47.332;11.180;2023-07-28T04:54:58;10.90;99.90
11284;DHT22;5698;47.332;11.180;2023-07-28T04:57:25;10.90;99.90
11284;DHT22;5698;47.332;11.180;2023-07-28T04:59:52;10.90;99.90
11284;DHT22;5698;47.332;11.180;2023-07-28T05:02:19;11.00;99.90
11284;DHT22;5698;47.332;11.180;2023-07-28T05:04:46;11.00;99.90
11284;DHT22;5698;47.332;11.180;2023-07-28T05:07:13;11.10;99.90
11284;DHT22;5698;47.332;11.180;2023-07-28T05:09:40;11.20;99.90
11284;DHT22;5698;47.332;11.180;2023-07-28T05:12:09;11.20;99.90
11284;DHT22;5698;47.332;11.180;2023-07-28T05:14:36;11.30;99.90
11284;DHT22;5698;47.332;11.180;2023-07-28T05:17:03;11.50;99.90
11284;DHT22;5698;47.332;11.180;2023-07-28T05:19:31;11.60;99.90
11284;DHT22;5698;47.332;11.180;2023-07-28T05:21:58;11.70;99.90
11284;DHT22;5698;47.332;11.180;2023-07-28T05:24:25;11.80;99.90
11284;DHT22;5698;47.332;11.180;2023-07-28T05:26:52;11.90;99.90
11284;DHT22;5698;47.332;11.180;2023-07-28T05:29:20;11.90;99.90
11284;DHT22;5698;47.332;11.180;2023-07-28T05:31:47;11.90;99.90
11284;DHT22;5698;47.332;11.180;2023-07-28T05:34:14;12.00;99.90
11284;DHT22;5698;47.332;11.180;2023-07-28T05:36:42;12.00;99.90
11284;DHT22;5698;47.332;11.180;2023-07-28T05:39:09;12.00;99.90
11284;DHT22;5698;47.332;11.180;2023-07-28T05:41:36;12.10;99.90
11284;DHT22;5698;47.332;11.180;2023-07-28T05:44:04;12.20;99.90
11284;DHT22;5698;47.332;11.180;2023-07-28T05:46:32;12.20;99.90
11284;DHT22;5698;47.332;11.180;2023-07-28T05:48:59;12.30;99.90
11284;DHT22;5698;47.332;11.180;2023-07-28T05:51:26;12.30;99.90
11284;DHT22;5698;47.332;11.180;2023-07-28T05:53:53;12.30;99.90
11284;DHT22;5698;47.332;11.180;2023-07-28T05:56:20;12.30;99.90
11284;DHT22;5698;47.332;11.180;2023-07-28T05:58:47;12.20;99.90
11284;DHT22;5698;47.332;11.180;2023-07-28T06:01:14;12.20;99.90
11284;DHT22;5698;47.332;11.180;2023-07-28T06:03:43;12.30;99.90
11284;DHT22;5698;47.332;11.180;2023-07-28T06:06:10;12.30;99.90
11284;DHT22;5698;47.332;11.180;2023-07-28T06:08:38;12.30;99.90
11284;DHT22;5698;47.332;11.180;2023-07-28T06:11:05;12.30;99.90
11284;DHT22;5698;47.332;11.180;2023-07-28T06:13:33;12.30;99.90
11284;DHT22;5698;47.332;11.180;2023-07-28T06:16:00;12.30;99.90
11284;DHT22;5698;47.332;11.180;2023-07-28T06:18:27;12.20;99.90
11284;DHT22;5698;47.332;11.180;2023-07-28T06:20:55;12.20;99.90
11284;DHT22;5698;47.332;11.180;2023-07-28T06:23:22;12.30;99.90
11284;DHT22;5698;47.332;11.180;2023-07-28T06:25:49;12.30;99.90
11284;DHT22;5698;47.332;11.180;2023-07-28T06:28:16;12.40;99.90
11284;DHT22;5698;47.332;11.180;2023-07-28T06:30:43;12.40;99.90
11284;DHT22;5698;47.332;11.180;2023-07-28T06:33:10;12.30;99.90
11284;DHT22;5698;47.332;11.180;2023-07-28T06:35:38;12.30;99.90
11284;DHT22;5698;47.332;11.180;2023-07-28T06:38:06;12.30;99.90
11284;DHT22;5698;47.332;11.180;2023-07-28T06:40:33;12.30;99.90
11284;DHT22;5698;47.332;11.180;2023-07-28T06:43:00;12.30;99.90
11284;DHT22;5698;47.332;11.180;2023-07-28T06:45:27;12.40;99.90
11284;DHT22;5698;47.332;11.180;2023-07-28T06:47:54;12.40;99.90
11284;DHT22;5698;47.332;11.180;2023-07-28T06:50:22;12.50;99.90
11284;DHT22;5698;47.332;11.180;2023-07-28T06:52:49;12.60;99.90
11284;DHT22;5698;47.332;11.180;2023-07-28T06:55:17;12.60;99.90
11284;DHT22;5698;47.332;11.180;2023-07-28T06:57:47;12.70;99.90
11284;DHT22;5698;47.332;11.180;2023-07-28T07:00:15;12.90;99.90
11284;DHT22;5698;47.332;11.180;2023-07-28T07:02:43;13.00;99.90
11284;DHT22;5698;47.332;11.180;2023-07-28T07:05:10;13.20;99.90
11284;DHT22;5698;47.332;11.180;2023-07-28T07:07:37;13.30;99.90
11284;DHT22;5698;47.332;11.180;2023-07-28T07:10:05;13.60;99.90
11284;DHT22;5698;47.332;11.180;2023-07-28T07:12:34;13.90;99.90
11284;DHT22;5698;47.332;11.180;2023-07-28T07:15:01;14.10;99.90
11284;DHT22;5698;47.332;11.180;2023-07-28T07:17:28;14.30;99.90
11284;DHT22;5698;47.332;11.180;2023-07-28T07:19:55;14.50;99.90
11284;DHT22;5698;47.332;11.180;2023-07-28T07:22:22;14.80;99.90
11284;DHT22;5698;47.332;11.180;2023-07-28T07:24:49;14.90;99.90
11284;DHT22;5698;47.332;11.180;2023-07-28T07:27:16;15.00;99.90
11284;DHT22;5698;47.332;11.180;2023-07-28T07:29:44;15.10;99.90
11284;DHT22;5698;47.332;11.180;2023-07-28T07:32:11;15.10;99.90
11284;DHT22;5698;47.332;11.180;2023-07-28T07:34:38;15.20;99.90
11284;DHT22;5698;47.332;11.180;2023-07-28T07:37:05;15.40;99.90
11284;DHT22;5698;47.332;11.180;2023-07-28T07:39:32;15.60;99.90
11284;DHT22;5698;47.332;11.180;2023-07-28T07:41:59;15.90;99.90
11284;DHT22;5698;47.332;11.180;2023-07-28T07:44:27;16.10;99.90
11284;DHT22;5698;47.332;11.180;2023-07-28T07:46:55;16.30;99.90
11284;DHT22;5698;47.332;11.180;2023-07-28T07:49:23;16.30;99.90
11284;DHT22;5698;47.332;11.180;2023-07-28T07:51:50;16.50;99.90
11284;DHT22;5698;47.332;11.180;2023-07-28T07:54:17;16.60;99.90
11284;DHT22;5698;47.332;11.180;2023-07-28T07:56:44;16.80;99.90
11284;DHT22;5698;47.332;11.180;2023-07-28T07:59:12;16.90;99.90
11284;DHT22;5698;47.332;11.180;2023-07-28T08:01:39;17.20;99.90
11284;DHT22;5698;47.332;11.180;2023-07-28T08:04:07;17.30;99.90
11284;DHT22;5698;47.332;11.180;2023-07-28T08:06:34;17.50;99.90
11284;DHT22;5698;47.332;11.180;2023-07-28T08:09:02;17.70;99.90
11284;DHT22;5698;47.332;11.180;2023-07-28T08:11:28;17.90;99.90
11284;DHT22;5698;47.332;11.180;2023-07-28T08:13:55;18.20;99.90
11284;DHT22;5698;47.332;11.180;2023-07-28T08:16:22;18.40;99.90
11284;DHT22;5698;47.332;11.180;2023-07-28T08:18:49;18.70;99.90
11284;DHT22;5698;47.332;11.180;2023-07-28T08:21:18;18.90;99.90
11284;DHT22;5698;47.332;11.180;2023-07-28T08:23:45;19.00;99.90
11284;DHT22;5698;47.332;11.180;2023-07-28T08:26:12;19.30;99.90
11284;DHT22;5698;47.332;11.180;2023-07-28T08:28:39;19.50;99.90
11284;DHT22;5698;47.332;11.180;2023-07-28T08:31:06;19.70;99.00
11284;DHT22;5698;47.332;11.180;2023-07-28T08:33:33;19.80;99.20
11284;DHT22;5698;47.332;11.180;2023-07-28T08:36:00;20.00;98.30
11284;DHT22;5698;47.332;11.180;2023-07-28T08:38:28;20.20;98.20
11284;DHT22;5698;47.332;11.180;2023-07-28T08:40:56;20.20;97.70
11284;DHT22;5698;47.332;11.180;2023-07-28T08:43:24;20.30;97.00
11284;DHT22;5698;47.332;11.180;2023-07-28T08:45:52;20.40;97.00
11284;DHT22;5698;47.332;11.180;2023-07-28T08:48:20;20.50;96.10
11284;DHT22;5698;47.332;11.180;2023-07-28T08:50:47;20.50;96.60
11284;DHT22;5698;47.332;11.180;2023-07-28T08:53:14;20.50;96.10
11284;DHT22;5698;47.332;11.180;2023-07-28T08:55:42;20.50;96.20
11284;DHT22;5698;47.332;11.180;2023-07-28T08:58:16;20.50;96.70
11284;DHT22;5698;47.332;11.180;2023-07-28T09:00:44;20.70;96.40
11284;DHT22;5698;47.332;11.180;2023-07-28T09:03:14;20.70;95.80
11284;DHT22;5698;47.332;11.180;2023-07-28T09:05:42;20.80;95.60
11284;DHT22;5698;47.332;11.180;2023-07-28T09:08:09;20.90;96.10
11284;DHT22;5698;47.332;11.180;2023-07-28T09:10:45;21.00;96.40
11284;DHT22;5698;47.332;11.180;2023-07-28T09:13:15;21.20;95.30
11284;DHT22;5698;47.332;11.180;2023-07-28T09:15:42;21.30;95.40
11284;DHT22;5698;47.332;11.180;2023-07-28T09:18:10;21.40;95.00
11284;DHT22;5698;47.332;11.180;2023-07-28T09:20:39;21.60;93.90
11284;DHT22;5698;47.332;11.180;2023-07-28T09:23:07;21.70;94.10
11284;DHT22;5698;47.332;11.180;2023-07-28T09:25:35;21.70;94.30
11284;DHT22;5698;47.332;11.180;2023-07-28T09:28:04;21.60;93.10
11284;DHT22;5698;47.332;11.180;2023-07-28T09:30:44;21.60;93.10
11284;DHT22;5698;47.332;11.180;2023-07-28T09:33:12;21.70;93.60
11284;DHT22;5698;47.332;11.180;2023-07-28T09:35:47;21.80;94.20
11284;DHT22;5698;47.332;11.180;2023-07-28T09:38:15;21.90;92.40
11284;DHT22;5698;47.332;11.180;2023-07-28T09:40:43;21.90;93.10
11284;DHT22;5698;47.332;11.180;2023-07-28T09:43:12;21.60;93.00
11284;DHT22;5698;47.332;11.180;2023-07-28T09:45:40;21.70;92.80
11284;DHT22;5698;47.332;11.180;2023-07-28T09:48:10;21.70;93.80
11284;DHT22;5698;47.332;11.180;2023-07-28T09:50:39;21.70;93.80
11284;DHT22;5698;47.332;11.180;2023-07-28T09:53:09;21.80;93.70
11284;DHT22;5698;47.332;11.180;2023-07-28T09:55:38;21.80;94.20
11284;DHT22;5698;47.332;11.180;2023-07-28T09:58:09;21.70;93.90
11284;DHT22;5698;47.332;11.180;2023-07-28T10:00:39;21.80;95.00
11284;DHT22;5698;47.332;11.180;2023-07-28T10:03:07;21.90;94.70
11284;DHT22;5698;47.332;11.180;2023-07-28T10:05:35;22.10;94.90
11284;DHT22;5698;47.332;11.180;2023-07-28T10:08:03;22.20;93.90
11284;DHT22;5698;47.332;11.180;2023-07-28T10:10:31;22.10;93.80
11284;DHT22;5698;47.332;11.180;2023-07-28T10:12:58;22.30;92.40
11284;DHT22;5698;47.332;11.180;2023-07-28T10:15:28;22.50;91.60
11284;DHT22;5698;47.332;11.180;2023-07-28T10:17:58;22.70;91.80
11284;DHT22;5698;47.332;11.180;2023-07-28T10:20:30;22.70;92.80
11284;DHT22;5698;47.332;11.180;2023-07-28T10:23:11;22.70;92.60
11284;DHT22;5698;47.332;11.180;2023-07-28T10:25:39;22.60;91.80
11284;DHT22;5698;47.332;11.180;2023-07-28T10:28:07;22.50;92.70
11284;DHT22;5698;47.332;11.180;2023-07-28T10:30:53;22.80;91.80
11284;DHT22;5698;47.332;11.180;2023-07-28T10:33:29;23.10;90.80
11284;DHT22;5698;47.332;11.180;2023-07-28T10:35:57;23.20;90.40
11284;DHT22;5698;47.332;11.180;2023-07-28T10:38:32;23.30;90.30
11284;DHT22;5698;47.332;11.180;2023-07-28T10:41:11;23.40;90.60
11284;DHT22;5698;47.332;11.180;2023-07-28T10:43:38;23.50;90.20
11284;DHT22;5698;47.332;11.180;2023-07-28T10:46:07;23.60;89.40
11284;DHT22;5698;47.332;11.180;2023-07-28T10:48:36;23.70;89.60
11284;DHT22;5698;47.332;11.180;2023-07-28T10:51:03;23.80;88.50
11284;DHT22;5698;47.332;11.180;2023-07-28T10:53:32;23.80;87.50
11284;DHT22;5698;47.332;11.180;2023-07-28T10:56:02;23.80;89.00
11284;DHT22;5698;47.332;11.180;2023-07-28T10:58:30;24.10;89.70
11284;DHT22;5698;47.332;11.180;2023-07-28T11:00:57;24.30;88.10
11284;DHT22;5698;47.332;11.180;2023-07-28T11:03:24;24.20;87.70
11284;DHT22;5698;47.332;11.180;2023-07-28T11:05:54;24.10;87.60
11284;DHT22;5698;47.332;11.180;2023-07-28T11:08:22;24.10;88.60
11284;DHT22;5698;47.332;11.180;2023-07-28T11:10:49;24.20;89.60
11284;DHT22;5698;47.332;11.180;2023-07-28T11:13:16;24.20;88.80
11284;DHT22;5698;47.332;11.180;2023-07-28T11:15:43;24.10;88.40
11284;DHT22;5698;47.332;11.180;2023-07-28T11:18:10;24.10;89.40
11284;DHT22;5698;47.332;11.180;2023-07-28T11:20:37;23.70;90.50
11284;DHT22;5698;47.332;11.180;2023-07-28T11:23:06;23.50;90.20
11284;DHT22;5698;47.332;11.180;2023-07-28T11:25:34;23.30;89.90
11284;DHT22;5698;47.332;11.180;2023-07-28T11:28:02;23.30;90.10
11284;DHT22;5698;47.332;11.180;2023-07-28T11:30:31;23.30;90.20
11284;DHT22;5698;47.332;11.180;2023-07-28T11:32:59;23.30;90.60
11284;DHT22;5698;47.332;11.180;2023-07-28T11:35:26;23.40;90.20
11284;DHT22;5698;47.332;11.180;2023-07-28T11:37:54;23.50;89.90
11284;DHT22;5698;47.332;11.180;2023-07-28T11:40:24;23.60;90.60
11284;DHT22;5698;47.332;11.180;2023-07-28T11:42:54;23.60;88.00
11284;DHT22;5698;47.332;11.180;2023-07-28T11:45:21;23.70;88.00
11284;DHT22;5698;47.332;11.180;2023-07-28T11:47:55;23.70;88.90
11284;DHT22;5698;47.332;11.180;2023-07-28T11:50:23;23.70;86.80
11284;DHT22;5698;47.332;11.180;2023-07-28T11:52:50;23.80;87.90
11284;DHT22;5698;47.332;11.180;2023-07-28T11:55:18;23.90;90.00
11284;DHT22;5698;47.332;11.180;2023-07-28T11:57:48;24.20;89.90
11284;DHT22;5698;47.332;11.180;2023-07-28T12:00:15;24.30;91.10
11284;DHT22;5698;47.332;11.180;2023-07-28T12:02:43;24.30;91.30
11284;DHT22;5698;47.332;11.180;2023-07-28T12:05:14;24.20;92.10
11284;DHT22;5698;47.332;11.180;2023-07-28T12:07:47;24.20;92.30
11284;DHT22;5698;47.332;11.180;2023-07-28T12:10:14;24.10;92.20
11284;DHT22;5698;47.332;11.180;2023-07-28T12:12:45;23.90;92.70
11284;DHT22;5698;47.332;11.180;2023-07-28T12:15:21;23.90;92.60
11284;DHT22;5698;47.332;11.180;2023-07-28T12:18:04;23.80;92.50
11284;DHT22;5698;47.332;11.180;2023-07-28T12:20:34;23.80;92.40
11284;DHT22;5698;47.332;11.180;2023-07-28T12:23:01;23.70;92.60
11284;DHT22;5698;47.332;11.180;2023-07-28T12:25:29;23.60;92.90
11284;DHT22;5698;47.332;11.180;2023-07-28T12:27:56;23.50;93.20
11284;DHT22;5698;47.332;11.180;2023-07-28T12:30:24;23.40;93.50
11284;DHT22;5698;47.332;11.180;2023-07-28T12:32:51;23.20;93.40
11284;DHT22;5698;47.332;11.180;2023-07-28T12:35:18;23.10;93.90
11284;DHT22;5698;47.332;11.180;2023-07-28T12:37:47;23.00;94.10
11284;DHT22;5698;47.332;11.180;2023-07-28T12:40:14;22.90;94.20
11284;DHT22;5698;47.332;11.180;2023-07-28T12:42:41;22.80;94.70
11284;DHT22;5698;47.332;11.180;2023-07-28T12:45:08;22.70;94.90
11284;DHT22;5698;47.332;11.180;2023-07-28T12:47:38;22.50;95.40
11284;DHT22;5698;47.332;11.180;2023-07-28T12:50:06;22.50;95.50
11284;DHT22;5698;47.332;11.180;2023-07-28T12:52:33;22.60;95.80
11284;DHT22;5698;47.332;11.180;2023-07-28T12:55:00;22.80;95.50
11284;DHT22;5698;47.332;11.180;2023-07-28T12:57:27;23.00;95.20
11284;DHT22;5698;47.332;11.180;2023-07-28T12:59:54;23.30;94.60
11284;DHT22;5698;47.332;11.180;2023-07-28T13:02:21;23.50;94.10
11284;DHT22;5698;47.332;11.180;2023-07-28T13:04:49;23.60;94.70
11284;DHT22;5698;47.332;11.180;2023-07-28T13:07:16;23.80;94.00
11284;DHT22;5698;47.332;11.180;2023-07-28T13:09:45;24.00;93.60
11284;DHT22;5698;47.332;11.180;2023-07-28T13:12:12;24.20;93.10
11284;DHT22;5698;47.332;11.180;2023-07-28T13:14:39;24.40;92.80
11284;DHT22;5698;47.332;11.180;2023-07-28T13:17:06;24.70;92.80
11284;DHT22;5698;47.332;11.180;2023-07-28T13:19:33;25.00;91.70
11284;DHT22;5698;47.332;11.180;2023-07-28T13:22:01;25.20;91.20
11284;DHT22;5698;47.332;11.180;2023-07-28T13:24:28;25.20;91.00
11284;DHT22;5698;47.332;11.180;2023-07-28T13:26:55;25.10;91.20
11284;DHT22;5698;47.332;11.180;2023-07-28T13:29:22;25.10;90.90
11284;DHT22;5698;47.332;11.180;2023-07-28T13:31:49;24.80;91.10
11284;DHT22;5698;47.332;11.180;2023-07-28T13:34:16;24.70;91.40
11284;DHT22;5698;47.332;11.180;2023-07-28T13:36:43;24.60;91.60
11284;DHT22;5698;47.332;11.180;2023-07-28T13:39:11;24.50;91.90
11284;DHT22;5698;47.332;11.180;2023-07-28T13:41:38;24.40;91.70
11284;DHT22;5698;47.332;11.180;2023-07-28T13:44:05;24.20;92.20
11284;DHT22;5698;47.332;11.180;2023-07-28T13:46:32;24.10;92.50
11284;DHT22;5698;47.332;11.180;2023-07-28T13:48:59;24.00;92.00
11284;DHT22;5698;47.332;11.180;2023-07-28T13:51:26;23.90;92.60
11284;DHT22;5698;47.332;11.180;2023-07-28T13:53:53;23.80;92.50
11284;DHT22;5698;47.332;11.180;2023-07-28T13:56:21;23.70;93.00
11284;DHT22;5698;47.332;11.180;2023-07-28T13:58:48;23.60;93.10
11284;DHT22;5698;47.332;11.180;2023-07-28T14:01:15;23.40;93.50
11284;DHT22;5698;47.332;11.180;2023-07-28T14:03:42;23.20;93.80
11284;DHT22;5698;47.332;11.180;2023-07-28T14:06:09;23.10;93.90
11284;DHT22;5698;47.332;11.180;2023-07-28T14:08:36;23.00;94.10
11284;DHT22;5698;47.332;11.180;2023-07-28T14:11:03;22.90;94.40
11284;DHT22;5698;47.332;11.180;2023-07-28T14:13:31;22.80;95.20
11284;DHT22;5698;47.332;11.180;2023-07-28T14:15:58;22.90;95.50
11284;DHT22;5698;47.332;11.180;2023-07-28T14:18:25;23.20;95.30
11284;DHT22;5698;47.332;11.180;2023-07-28T14:20:52;23.60;94.50
11284;DHT22;5698;47.332;11.180;2023-07-28T14:23:23;23.80;93.70
11284;DHT22;5698;47.332;11.180;2023-07-28T14:25:51;24.10;93.40
11284;DHT22;5698;47.332;11.180;2023-07-28T14:28:18;24.30;93.30
11284;DHT22;5698;47.332;11.180;2023-07-28T14:30:47;24.60;93.10
11284;DHT22;5698;47.332;11.180;2023-07-28T14:33:14;24.80;92.70
11284;DHT22;5698;47.332;11.180;2023-07-28T14:35:42;24.90;91.80
11284;DHT22;5698;47.332;11.180;2023-07-28T14:38:09;25.10;91.90
11284;DHT22;5698;47.332;11.180;2023-07-28T14:40:37;25.10;90.90
11284;DHT22;5698;47.332;11.180;2023-07-28T14:43:05;24.90;91.20
11284;DHT22;5698;47.332;11.180;2023-07-28T14:45:32;24.70;91.10
11284;DHT22;5698;47.332;11.180;2023-07-28T14:48:01;24.50;91.50
11284;DHT22;5698;47.332;11.180;2023-07-28T14:50:28;24.40;91.60
11284;DHT22;5698;47.332;11.180;2023-07-28T14:52:58;23.90;91.80
11284;DHT22;5698;47.332;11.180;2023-07-28T14:55:25;23.80;92.80
11284;DHT22;5698;47.332;11.180;2023-07-28T14:57:52;23.60;93.40
11284;DHT22;5698;47.332;11.180;2023-07-28T15:00:19;23.50;93.60
11284;DHT22;5698;47.332;11.180;2023-07-28T15:02:46;23.30;93.80
11284;DHT22;5698;47.332;11.180;2023-07-28T15:05:14;23.20;94.10
11284;DHT22;5698;47.332;11.180;2023-07-28T15:07:41;23.10;94.30
11284;DHT22;5698;47.332;11.180;2023-07-28T15:10:08;22.90;94.20
11284;DHT22;5698;47.332;11.180;2023-07-28T15:12:35;22.90;94.60
11284;DHT22;5698;47.332;11.180;2023-07-28T15:15:03;22.80;93.60
11284;DHT22;5698;47.332;11.180;2023-07-28T15:17:30;22.70;94.40
11284;DHT22;5698;47.332;11.180;2023-07-28T15:19:57;22.70;94.60
11284;DHT22;5698;47.332;11.180;2023-07-28T15:22:25;22.70;94.80
11284;DHT22;5698;47.332;11.180;2023-07-28T15:24:52;22.70;94.20
11284;DHT22;5698;47.332;11.180;2023-07-28T15:27:19;22.60;94.20
11284;DHT22;5698;47.332;11.180;2023-07-28T15:29:46;22.50;94.70
11284;DHT22;5698;47.332;11.180;2023-07-28T15:32:13;22.40;94.80
11284;DHT22;5698;47.332;11.180;2023-07-28T15:34:40;22.30;95.30
11284;DHT22;5698;47.332;11.180;2023-07-28T15:37:06;22.10;95.10